Time;durP1;ratioP1;P1;durP2;ratioP2;P2;SDS_P1;SDS_P2;PMS_P1;PMS_P2;Temp;Humidity;BMP_temperature;BMP_pressure;BME280_temperature;BME280_humidity;BME280_pressure;Samples;Min_cycle;Max_cycle;Signal;HPM_P1;HPM_P2
2022/01/19 00:44:08;;;;;;;27.95;6.88;;;5.70;99.90;;;;;;6190171;22;20035;-92
2022/01/19 00:47:59;;;;;;;16.98;5.28;;;5.70;99.90;;;;;;6246109;23;20070;-93
2022/01/19 00:55:21;;;;;;;14.40;5.55;;;5.70;99.90;;;;;;6217082;23;20107;-92
2022/01/19 00:58:37;;;;;;;19.23;6.50;;;5.70;99.90;;;;;;6205486;22;20091;-92
2022/01/19 01:01:53;;;;;;;13.80;5.25;;;5.70;99.90;;;;;;6197827;23;20016;-92
2022/01/19 01:06:09;;;;;;;;;;;;;;;;;;;;;
2022/01/19 01:08:46;;;;;;;12.32;4.72;;;5.60;99.90;;;;;;6211312;23;20099;-92
2022/01/19 01:11:29;;;;;;;20.65;8.02;;;5.70;99.90;;;;;;6197052;23;20015;-91
2022/01/19 01:22:02;;;;;;;20.35;6.25;;;5.60;99.90;;;;;;6094864;23;20060;-93
2022/01/19 01:24:39;;;;;;;17.42;5.10;;;5.60;99.90;;;;;;6100443;23;20556;-92
2022/01/19 01:27:23;;;;;;;14.80;5.43;;;5.70;99.90;;;;;;6125334;23;20057;-92
2022/01/19 01:29:53;;;;;;;18.15;6.75;;;5.60;99.90;;;;;;6125322;23;20032;-91
2022/01/19 01:32:43;;;;;;;18.63;6.25;;;5.60;99.90;;;;;;6100343;23;20438;-92
2022/01/19 01:35:27;;;;;;;14.38;5.30;;;5.60;99.90;;;;;;6124104;23;20557;-92
2022/01/19 01:38:06;;;;;;;24.55;6.70;;;5.60;99.90;;;;;;6100359;23;20018;-92
2022/01/19 01:41:34;;;;;;;17.60;6.53;;;5.50;99.90;;;;;;6110678;23;20477;-92
2022/01/19 02:22:59;;;;;;;29.60;11.80;;;5.60;99.90;;;;;;6201969;22;20047;-94
2022/01/19 02:26:06;;;;;;;25.52;10.32;;;5.60;99.90;;;;;;6220834;23;20012;-92
2022/01/19 02:43:49;;;;;;;25.38;9.95;;;5.50;99.90;;;;;;6138626;23;20016;-92
2022/01/19 02:49:30;;;;;;;36.40;12.18;;;5.50;99.90;;;;;;6219149;23;20023;-94
2022/01/19 02:57:39;;;;;;;;;;;;;;;;;;;;;
2022/01/19 03:28:29;;;;;;;29.95;12.00;;;5.50;99.90;;;;;;6251553;22;20134;-94
2022/01/19 04:25:12;;;;;;;39.28;13.63;;;5.60;99.90;;;;;;6231400;22;20034;-94
2022/01/19 04:28:07;;;;;;;39.90;13.95;;;5.60;99.90;;;;;;6251049;22;20016;-92
2022/01/19 04:31:14;;;;;;;38.25;12.00;;;5.70;99.90;;;;;;6234817;23;20035;-93
2022/01/19 05:27:32;;;;;;;22.88;8.05;;;5.80;99.90;;;;;;6239507;22;20082;-92
2022/01/19 05:42:22;;;;;;;24.00;8.30;;;5.80;99.90;;;;;;6247153;22;20332;-93
2022/01/19 05:45:36;;;;;;;25.92;8.57;;;5.80;99.90;;;;;;6199770;23;20016;-93
2022/01/19 12:58:08;;;;;;;12.40;4.03;;;7.00;99.90;;;;;;6247844;22;20070;-95
2022/01/19 13:00:52;;;;;;;16.92;5.03;;;7.00;99.90;;;;;;6218577;23;20020;-94
2022/01/19 14:30:20;;;;;;;18.27;6.22;;;6.90;99.90;;;;;;6226155;22;20062;-95
2022/01/19 14:51:52;;;;;;;19.08;6.05;;;7.10;99.90;;;;;;6218077;22;20039;-94
2022/01/19 14:55:55;;;;;;;16.75;5.28;;;7.00;99.90;;;;;;6236930;22;20038;-93
2022/01/19 15:07:15;;;;;;;21.45;4.68;;;7.00;99.90;;;;;;6257821;23;20034;-94
2022/01/19 15:13:10;;;;;;;12.70;4.32;;;7.10;99.90;;;;;;6251020;22;20034;-90
2022/01/19 16:39:55;;;;;;;28.40;7.40;;;6.70;99.90;;;;;;6254375;22;20034;-91
2022/01/19 16:43:27;;;;;;;25.70;6.88;;;6.70;99.90;;;;;;6245780;22;20004;-93
2022/01/19 16:50:32;;;;;;;18.95;5.47;;;6.70;99.90;;;;;;6247821;23;20336;-94
2022/01/19 16:53:03;;;;;;;24.60;5.40;;;6.60;99.90;;;;;;6197508;23;20012;-93
2022/01/19 16:55:41;;;;;;;37.45;6.10;;;6.60;99.90;;;;;;6221402;23;20439;-92
2022/01/19 17:02:32;;;;;;;33.88;6.15;;;6.60;99.90;;;;;;6191897;23;20064;-95
2022/01/19 17:10:49;;;;;;;25.70;4.63;;;6.60;99.90;;;;;;6100185;23;20464;-94
2022/01/19 17:23:29;;;;;;;29.63;5.18;;;6.60;99.90;;;;;;5956097;24;20023;-94
2022/01/19 17:26:28;;;;;;;26.65;4.93;;;6.60;99.90;;;;;;5999305;23;20078;-94
2022/01/19 17:29:43;;;;;;;37.33;6.47;;;6.50;99.90;;;;;;6000513;23;20034;-95
2022/01/19 17:33:23;;;;;;;22.48;4.22;;;6.50;99.90;;;;;;5970310;24;20024;-96
2022/01/19 17:35:58;;;;;;;26.20;5.55;;;6.50;99.90;;;;;;5937048;24;20043;-92
2022/01/19 17:38:28;;;;;;;35.87;4.40;;;6.50;99.90;;;;;;6026039;23;20023;-93
2022/01/19 17:41:56;;;;;;;20.27;4.22;;;6.50;99.90;;;;;;6046168;23;20033;-94
2022/01/19 18:03:11;;;;;;;24.38;3.33;;;6.40;99.90;;;;;;6244868;22;20031;-93
2022/01/19 18:14:56;;;;;;;20.38;3.38;;;6.40;99.90;;;;;;6096661;23;20042;-94
2022/01/19 18:21:13;;;;;;;14.90;3.13;;;6.40;99.90;;;;;;6245009;22;20054;-92
2022/01/19 18:24:01;;;;;;;28.15;3.67;;;6.40;99.90;;;;;;6197258;23;20047;-93
2022/01/19 18:26:42;;;;;;;14.15;4.00;;;6.40;99.90;;;;;;6197473;23;20024;-93
2022/01/19 18:30:38;;;;;;;33.97;4.22;;;6.40;99.90;;;;;;6171232;23;20031;-92
2022/01/19 18:37:54;;;;;;;30.88;4.00;;;6.40;99.90;;;;;;6097319;23;20073;-92
2022/01/19 18:41:11;;;;;;;25.17;2.95;;;6.40;99.90;;;;;;6049413;23;20017;-92
2022/01/19 19:35:55;;;;;;;14.73;2.53;;;6.40;99.90;;;;;;6262174;22;20054;-93
2022/01/19 19:38:48;;;;;;;13.45;3.17;;;6.40;99.90;;;;;;6246085;22;20016;-92
2022/01/19 19:41:55;;;;;;;20.83;3.35;;;6.40;99.90;;;;;;6224863;23;20095;-94
2022/01/19 19:45:17;;;;;;;20.80;2.78;;;6.40;99.90;;;;;;6202866;23;20016;-93
2022/01/19 19:53:12;;;;;;;14.15;2.40;;;6.40;99.90;;;;;;6126708;23;20046;-93
2022/01/19 20:20:09;;;;;;;;;;;6.30;99.90;;;;;;6182870;23;20020;-92
2022/01/19 20:31:36;;;;;;;15.00;1.40;;;6.30;99.90;;;;;;6236236;22;20028;-93
2022/01/19 20:34:23;;;;;;;9.57;1.52;;;6.30;99.90;;;;;;6231075;22;20016;-91
2022/01/19 20:37:12;;;;;;;17.17;2.20;;;6.30;99.90;;;;;;6251674;22;20020;-91
2022/01/19 20:43:29;;;;;;;8.88;2.25;;;6.20;99.90;;;;;;6245573;22;20520;-90
2022/01/19 20:45:59;;;;;;;17.33;2.20;;;6.30;99.90;;;;;;6230976;22;20027;-90
2022/01/19 20:53:33;;;;;;;15.90;2.65;;;6.30;99.90;;;;;;6125402;23;20025;-91
2022/01/19 21:00:18;;;;;;;26.00;2.63;;;6.30;99.90;;;;;;6176775;23;20108;-92
2022/01/19 21:02:51;;;;;;;14.93;2.10;;;6.20;99.90;;;;;;6197022;23;20020;-92
2022/01/19 21:05:26;;;;;;;22.25;2.92;;;6.20;99.90;;;;;;6220909;23;20328;-93
2022/01/19 21:07:55;;;;;;;11.95;2.55;;;6.20;99.90;;;;;;6220814;23;20016;-92
2022/01/19 21:10:40;;;;;;;11.98;3.47;;;6.20;99.90;;;;;;6168076;23;20056;-93
2022/01/19 21:18:11;;;;;;;;;;;;;;;;;;;;;
2022/01/19 21:21:20;;;;;;;10.65;1.33;;;6.20;99.90;;;;;;6246796;22;20506;-92
2022/01/19 21:24:42;;;;;;;15.18;2.70;;;6.10;99.90;;;;;;6221702;23;20027;-91
2022/01/19 21:27:33;;;;;;;12.90;1.23;;;6.10;99.90;;;;;;6200327;23;20016;-90
2022/01/19 21:30:05;;;;;;;7.32;1.27;;;6.10;99.90;;;;;;6219494;23;20016;-91
2022/01/19 21:32:36;;;;;;;8.33;1.23;;;6.10;99.90;;;;;;6220158;23;20333;-92
2022/01/19 21:35:06;;;;;;;10.48;1.83;;;6.10;99.90;;;;;;6247265;23;20012;-92
2022/01/19 21:37:38;;;;;;;10.32;2.00;;;6.10;99.90;;;;;;6220816;23;20439;-93
2022/01/19 21:40:11;;;;;;;9.02;1.63;;;6.10;99.90;;;;;;6195980;23;20025;-93
2022/01/19 21:42:46;;;;;;;13.50;1.77;;;6.00;99.90;;;;;;6221452;23;20367;-93
2022/01/19 21:46:03;;;;;;;18.05;1.80;;;6.00;99.90;;;;;;6196148;23;20359;-92
2022/01/19 21:48:31;;;;;;;9.38;1.85;;;6.00;99.90;;;;;;6246819;23;20020;-91
2022/01/19 21:51:02;;;;;;;12.73;2.83;;;6.00;99.90;;;;;;6195305;23;20095;-92
2022/01/19 21:53:34;;;;;;;4.90;1.33;;;6.00;99.90;;;;;;6196029;23;20399;-91
2022/01/19 21:56:19;;;;;;;6.88;1.00;;;6.00;99.90;;;;;;6248162;23;20020;-94
2022/01/19 21:59:14;;;;;;;9.40;1.83;;;6.00;99.90;;;;;;6196560;23;20016;-94
2022/01/19 22:01:44;;;;;;;13.25;2.17;;;6.00;99.90;;;;;;6220747;23;20031;-91
2022/01/19 22:04:15;;;;;;;9.15;1.85;;;6.00;99.90;;;;;;6196544;23;20031;-91
2022/01/19 22:06:50;;;;;;;10.98;1.58;;;6.00;99.90;;;;;;6196269;23;20099;-93
2022/01/19 22:12:56;;;;;;;9.27;1.50;;;6.00;99.90;;;;;;6198604;23;20066;-91
2022/01/19 22:15:41;;;;;;;9.18;2.17;;;6.00;99.90;;;;;;6197558;23;20016;-92
2022/01/19 22:18:14;;;;;;;10.10;1.10;;;6.00;99.90;;;;;;6220036;23;20016;-93
2022/01/19 22:20:46;;;;;;;8.20;1.02;;;6.00;99.90;;;;;;6221135;23;20127;-94
2022/01/19 22:23:16;;;;;;;14.13;1.73;;;6.00;99.90;;;;;;6221474;23;20012;-91
2022/01/19 22:25:46;;;;;;;6.55;1.70;;;6.00;99.90;;;;;;6247280;23;20020;-93
2022/01/19 22:28:16;;;;;;;7.85;2.08;;;6.00;99.90;;;;;;6221702;23;20343;-93
2022/01/19 22:30:49;;;;;;;11.77;1.33;;;6.00;99.90;;;;;;6195059;23;20027;-94
2022/01/19 22:33:17;;;;;;;14.63;1.55;;;6.00;99.90;;;;;;6195706;23;20012;-93
2022/01/19 22:35:48;;;;;;;19.40;2.78;;;6.00;99.90;;;;;;6196460;23;20023;-92
2022/01/19 22:38:29;;;;;;;9.10;2.38;;;6.00;99.90;;;;;;6221129;23;20069;-93
2022/01/19 22:41:08;;;;;;;23.13;2.15;;;6.00;99.90;;;;;;6196339;23;20093;-93
2022/01/19 22:43:38;;;;;;;9.85;1.55;;;6.00;99.90;;;;;;6194873;23;20342;-93
2022/01/19 22:46:07;;;;;;;7.28;1.17;;;6.00;99.90;;;;;;6221139;23;20433;-93
2022/01/19 22:48:35;;;;;;;13.02;1.83;;;6.00;99.90;;;;;;6219574;23;20439;-93
2022/01/19 22:51:02;;;;;;;14.65;1.85;;;6.00;99.90;;;;;;6195466;23;20020;-93
2022/01/19 22:53:29;;;;;;;19.85;3.08;;;6.10;99.90;;;;;;6219909;23;20016;-93
2022/01/19 22:55:59;;;;;;;11.57;2.60;;;6.10;99.90;;;;;;6246650;23;20025;-93
2022/01/19 22:58:30;;;;;;;7.15;1.80;;;6.10;99.90;;;;;;6218883;23;20012;-93
2022/01/19 23:01:00;;;;;;;18.95;1.50;;;6.00;99.90;;;;;;6196759;23;20420;-93
2022/01/19 23:03:29;;;;;;;14.65;2.47;;;6.00;99.90;;;;;;6195734;23;20046;-93
2022/01/19 23:05:56;;;;;;;10.52;1.45;;;6.00;99.90;;;;;;6195137;23;20447;-92
2022/01/19 23:08:29;;;;;;;24.48;2.35;;;6.10;99.90;;;;;;6220450;23;20019;-93
2022/01/19 23:11:00;;;;;;;9.90;1.27;;;6.10;99.90;;;;;;6195074;23;20016;-92
2022/01/19 23:13:43;;;;;;;12.82;1.42;;;6.10;99.90;;;;;;6219580;23;20023;-93
2022/01/19 23:16:22;;;;;;;6.05;1.92;;;6.10;99.90;;;;;;6195752;23;20099;-93
2022/01/19 23:19:00;;;;;;;24.30;2.42;;;6.10;99.90;;;;;;6219884;23;20517;-92
2022/01/19 23:21:30;;;;;;;15.57;2.45;;;6.10;99.90;;;;;;6219924;23;20099;-92
2022/01/19 23:24:03;;;;;;;12.43;1.48;;;6.10;99.90;;;;;;6220755;23;20070;-92
2022/01/19 23:26:41;;;;;;;14.00;1.40;;;6.10;99.90;;;;;;6220478;23;20020;-93
2022/01/19 23:29:15;;;;;;;10.30;1.55;;;6.10;99.90;;;;;;6195786;23;20058;-93
2022/01/19 23:36:08;;;;;;;9.30;1.27;;;6.00;99.90;;;;;;6224541;23;19951;-92
2022/01/19 23:50:06;;;;;;;20.73;1.90;;;6.00;99.90;;;;;;6220465;23;20020;-94
2022/01/19 23:53:09;;;;;;;16.80;1.77;;;6.00;99.90;;;;;;6197082;23;20107;-91
2022/01/19 23:55:58;;;;;;;16.90;2.60;;;5.90;99.90;;;;;;6180272;23;20020;-92
2022/01/19 23:58:36;;;;;;;10.15;1.40;;;6.00;99.90;;;;;;6221845;23;20020;-93
